Strona główna
METAR-TAF:

METAR-TAF

Lotnisko :

Port lotniczy Malakka

Malakka, Malezja

Szerokość geograficzna: 02-16N, Długość geograficzna: 102-15E, wysokość: 11 m

Aktualna obserwacja pogody

Raport powstał 1 godzina i 6 minut temu, godzina 05:00 UTC
Wiatr 9 kt z kierunków zmiennych
Temperatura 33°C
Wilgotność 56%
Ciśnienie 1010 hPa
Widzialność 10 km lub więcej
Mało chmury na wysokości 2000 ft

METAR: WMKM 280500Z VRB09KT 9999 FEW020 33/23 Q1010

czas: 14:06 (06:06 UTC)

Prognoza

Raport powstał 1 godzina i 6 minut temu, godzina 05:00 UTC
Prognoza ważna od 28 godzina 06 UTC do 29 godzina 06 UTC
Wiatr 6 kt od północny wschód
Widzialność 10 km lub więcej
Mało chmury na wysokości 2000 ft
Przejściowo
od 28 godzina 06 UTC do 28 godzina 09 UTC
Wiatr 8 kt od północny wschód w porywach dochodzący do 18 kt

TAF: WMKM 280500Z 2806/2906 05006KT 9999 FEW020 TEMPO 2806/2809 05008G18KT

Obserwacja i prognoza pogody dla ponad 4000 lotnisk (raport METAR i TAF).

Dostępne stacje oznaczono żółtymi i czerwonymi punktami na mapie.

Najedź kursorem aby zobaczyć nazwę stacji.

Kliknij aby zobaczyć obserwacje i prognozy pogody.

Aby zmienić mapę: kliknij na zielony przycisk z czarnym krzyżykiem, aby powiększyć; na zielony przycisk z myślnikiem, aby pomniejszyć; na zielone strzałki, aby przejść do map sąsiednich.


METAR-TAF: